South Congaree, South Carolina
Current Conditions -  °F | °C
As of 3:56 PM on Wednesday 17 Dec 2014 (Local Time) from KCAE Reporting Station
Few Clouds Few Clouds  
Wind Chill: 62°   Ceiling: Unl
Heat Index: 62°   Visibility: 10mi
Dew Point: 38°   Wind: 6mph
Humidity: 41%   Direction: 290°WNW
Pressure: 30.07"   Gusts: NA
Location:  33.9973°N, 81.0998°W
Report Text: KCAE 172056Z 29005KT 10SM FEW220 17/03 A3007 RMK AO2 SLP182 T01670033 55008
Loading
Personal Weather Stations






























Interactive Weather Map New forecast layout! Learn more

10-Day Weather Forecast

Advertisements
Track Severe Weather on mobile